Flight Track Log - Related Links

Times and Time Zones

All times are in EDT time to prevent confusion due to time zone crossing. See the SKW5305 flight status page for this flight to view local times or setup timezone preferences in your user account.

Time Position Orientation Groundspeed Altitude Reporting Facility
EDT Latitude Longitude Course Direction KTS MPH feet Rate Location/Type
Thu 08:44:13 PM 47.4614 -122.3089 180° South 137 158 1,100  Level Seattle Center
Thu 08:45:33 PM 47.5197 -122.3194 353° North 186 214 3,100 1,385 Climbing Seattle Center
Thu 08:46:10 PM 47.5269 -122.3547 287° West 194 223 3,800 1,600 Climbing Seattle Center
Thu 08:46:33 PM 47.5236 -122.3961 263° West 205 236 4,700 1,574 Climbing Seattle Center
Thu 08:47:11 PM 47.5167 -122.4331 254° West 199 229 5,400 1,672 Climbing Seattle Center
Thu 08:47:34 PM 47.4881 -122.4486 200° South 210 242 6,400 1,574 Climbing Seattle Center
Thu 08:48:12 PM 47.4628 -122.4419 170° South 209 241 7,000 1,180 Climbing Seattle Center
Thu 08:48:35 PM 47.4289 -122.4350 172° South 224 258 7,600 1,377 Climbing Seattle Center
Thu 08:49:00 PM 46.9543 -122.3896 180° South  Level Estimated
Thu 08:49:13 PM 47.3889 -122.4278 173° South 228 262 8,400  Level Seattle Center
Thu 08:49:30 PM 47.3689 -122.4256 176° South 236 272 8,800 1,377 Climbing Seattle Center
Thu 08:50:14 PM 47.3281 -122.3956 154° Southeast 245 282 9,800 1,562 Climbing Seattle Center
Thu 08:50:43 PM 47.2989 -122.3689 148° Southeast 244 281 10,700 1,574 Climbing Seattle Center
Thu 08:51:15 PM 47.2739 -122.3406 142° Southeast 240 276 11,400 1,484 Climbing Seattle Center
Thu 08:52:16 PM 47.2147 -122.3008 155° Southeast 239 275 13,000 1,426 Climbing Seattle Center
Thu 08:53:17 PM 47.1517 -122.3044 182° South 230 265 14,300 984 Climbing Seattle Center
Thu 08:54:18 PM 47.0856 -122.3108 184° South 240 276 15,000 344 Climbing Seattle Center
Thu 08:55:19 PM 47.0122 -122.3100 180° South 264 304 15,000  Level Seattle Center
Thu 08:56:20 PM 46.9364 -122.3119 181° South 274 315 15,000  Level Seattle Center
Thu 08:57:21 PM 46.8453 -122.3239 185° South 278 320 15,000  Level Seattle Center
Thu 08:58:21 PM 46.7689 -122.3328 185° South 278 320 15,000  Level Seattle Center
Thu 08:59:22 PM 46.6925 -122.3408 184° South 277 319 15,000  Level Seattle Center
Thu 09:00:23 PM 46.6156 -122.3497 185° South 282 325 15,000  Level Seattle Center
Thu 09:01:24 PM 46.5386 -122.3569 184° South 279 321 15,000 -347 Level Seattle Center
Thu 09:02:24 PM 46.4522 -122.3697 186° South 280 322 14,300 -836 Descending Seattle Center
Thu 09:03:26 PM 46.3825 -122.3714 181° South 285 328 13,300 -1,139 Descending Seattle Center
Thu 09:03:43 PM 46.3483 -122.3819 192° South 290 334 12,800 -1,180 Descending Seattle Center
Thu 09:04:27 PM 46.3033 -122.3819 180° South 286 329 12,100 -1,180 Descending Seattle Center
Thu 09:04:44 PM 46.2672 -122.3878 186° South 288 331 11,600 -1,279 Descending Seattle Center
Thu 09:05:28 PM 46.2094 -122.3889 181° South 283 326 10,800 -1,082 Descending Seattle Center
Thu 09:05:45 PM 46.1886 -122.3958 193° South 283 326 10,500 -1,180 Descending Seattle Center
Thu 09:06:29 PM 46.1300 -122.3992 182° South 277 319 9,600 -1,180 Descending Seattle Center
Thu 09:06:46 PM 46.1058 -122.4053 190° South 278 320 9,300 -667 Descending Seattle Center
Thu 09:07:41 PM 46.0472 -122.4264 194° South 257 296 8,800 -1,029 Descending Seattle Center
Thu 09:08:31 PM 45.9928 -122.4614 204° Southwest 260 299 7,500 -1,514 Descending Seattle Center
Thu 09:09:32 PM 45.9214 -122.5000 201° Southwest 269 310 6,000 -800 Descending Seattle Center
Thu 09:10:31 PM 45.8500 -122.4803 169° South 251 289 5,900 -400 Descending Seattle Center
Thu 09:11:32 PM 45.7825 -122.4678 173° South 237 273 5,200 -992 Descending Seattle Center
Thu 09:12:32 PM 45.7100 -122.4636 178° South 243 280 3,900 -829 Descending Seattle Center
Thu 09:13:35 PM 45.6569 -122.4572 175° South 227 261 3,500 -532 Descending Seattle Center
Thu 09:14:36 PM 45.6025 -122.4522 176° South 205 236 2,800 -857 Descending Seattle Center
Thu 09:14:52 PM 45.5839 -122.4508 177° South 176 203 2,400 -915 Descending Seattle Center
Thu 09:15:35 PM 45.5556 -122.4717 207° Southwest 167 192 1,900 -698 Descending Seattle Center

Login

Don't have an account? Register now (free) for customized features, flight alerts, and more!